createdAt,value
2023-04-18T00:02:23.866Z,6.22
2023-04-18T00:04:51.949Z,5.53
2023-04-18T00:07:45.285Z,5.78
2023-04-18T00:10:13.070Z,6.75
2023-04-18T00:12:41.115Z,7.95
2023-04-18T00:15:09.625Z,6.68
2023-04-18T00:17:40.544Z,7.28
2023-04-18T00:20:11.158Z,6.15
2023-04-18T00:22:46.859Z,6.20
2023-04-18T00:25:14.739Z,7.47
2023-04-18T00:27:42.796Z,5.53
2023-04-18T00:30:11.277Z,6.15
2023-04-18T00:32:39.224Z,5.97
2023-04-18T00:35:07.034Z,6.18
2023-04-18T00:37:34.621Z,6.50
2023-04-18T00:40:03.262Z,6.47
2023-04-18T00:42:31.029Z,6.22
2023-04-18T00:44:58.603Z,5.80
2023-04-18T00:47:27.539Z,5.20
2023-04-18T00:49:55.995Z,5.90
2023-04-18T00:52:27.161Z,5.78
2023-04-18T00:54:55.911Z,5.53
2023-04-18T00:57:23.611Z,6.45
2023-04-18T00:59:51.243Z,5.45
2023-04-18T01:02:19.355Z,6.72
2023-04-18T01:04:47.189Z,6.10
2023-04-18T01:07:15.118Z,6.75
2023-04-18T01:09:42.914Z,5.35
2023-04-18T01:12:10.476Z,5.55
2023-04-18T01:14:42.618Z,6.57
2023-04-18T01:17:11.190Z,5.88
2023-04-18T01:19:39.487Z,4.55
2023-04-18T01:22:08.691Z,4.95
2023-04-18T01:24:36.290Z,6.50
2023-04-18T01:27:04.401Z,4.50
2023-04-18T01:29:34.887Z,4.75
2023-04-18T01:32:02.974Z,5.18
2023-04-18T01:34:30.773Z,6.95
2023-04-18T01:36:59.474Z,7.07
2023-04-18T01:39:27.114Z,6.45
2023-04-18T01:41:54.798Z,8.75
2023-04-18T01:44:22.436Z,5.30
2023-04-18T01:46:50.278Z,6.28
2023-04-18T01:49:18.253Z,5.13
2023-04-18T01:51:46.134Z,4.70
2023-04-18T01:54:15.079Z,5.53
2023-04-18T01:56:43.014Z,5.55
2023-04-18T01:59:10.641Z,6.30
2023-04-18T02:01:39.285Z,6.72
2023-04-18T02:04:06.844Z,4.13
2023-04-18T02:06:34.616Z,3.90
2023-04-18T02:09:02.291Z,5.25
2023-04-18T02:11:30.564Z,5.47
2023-04-18T02:13:59.622Z,5.13
2023-04-18T02:16:27.432Z,5.97
2023-04-18T02:18:55.260Z,5.03
2023-04-18T02:21:23.012Z,4.82
2023-04-18T02:23:51.037Z,5.15
2023-04-18T02:26:18.814Z,5.00
2023-04-18T02:28:46.667Z,5.90
2023-04-18T02:31:16.342Z,5.55
2023-04-18T02:33:44.641Z,5.00
2023-04-18T02:36:15.424Z,4.82
2023-04-18T02:41:15.111Z,5.93
2023-04-18T02:43:42.870Z,5.20
2023-04-18T02:46:10.628Z,6.30
2023-04-18T02:48:38.633Z,7.32
2023-04-18T02:51:07.986Z,5.38
2023-04-18T02:53:37.694Z,6.20
2023-04-18T02:56:06.007Z,4.50
2023-04-18T02:58:59.653Z,5.78
2023-04-18T03:01:47.159Z,5.68
2023-04-18T03:04:17.514Z,5.63
2023-04-18T03:06:53.662Z,5.78
2023-04-18T03:09:22.913Z,5.63
2023-04-18T03:11:56.032Z,4.95
2023-04-18T03:14:27.176Z,4.28
2023-04-18T03:16:56.660Z,7.45
2023-04-18T03:19:29.269Z,5.18
2023-04-18T03:21:59.989Z,5.22
2023-04-18T03:24:28.062Z,5.00
2023-04-18T03:27:00.552Z,6.55
2023-04-18T03:29:28.613Z,5.68
2023-04-18T03:31:56.786Z,5.35
2023-04-18T03:34:24.547Z,4.72
2023-04-18T03:36:52.957Z,6.28
2023-04-18T03:39:20.758Z,4.97
2023-04-18T03:41:49.400Z,7.35
2023-04-18T03:44:17.302Z,5.32
2023-04-18T03:46:44.998Z,6.85
2023-04-18T03:49:12.926Z,5.85
2023-04-18T03:51:47.245Z,5.15
2023-04-18T03:54:15.268Z,6.72
2023-04-18T03:56:43.161Z,8.63
2023-04-18T03:59:11.113Z,6.53
2023-04-18T04:01:39.025Z,6.25
2023-04-18T04:04:09.130Z,6.28
2023-04-18T04:06:36.854Z,7.17
2023-04-18T04:09:04.366Z,9.20
2023-04-18T04:11:32.163Z,7.25
2023-04-18T04:13:59.782Z,6.35
2023-04-18T04:16:34.072Z,6.97
2023-04-18T04:19:02.502Z,8.25
2023-04-18T04:21:36.925Z,6.30
2023-04-18T04:24:06.935Z,6.88
2023-04-18T04:26:40.012Z,7.25
2023-04-18T04:29:13.785Z,7.00
2023-04-18T04:31:43.146Z,6.38
2023-04-18T04:34:11.300Z,7.30
2023-04-18T04:36:41.191Z,7.95
2023-04-18T04:39:11.281Z,7.65
2023-04-18T04:41:53.484Z,8.05
2023-04-18T04:44:25.924Z,9.07
2023-04-18T04:46:54.939Z,6.72
2023-04-18T04:49:27.337Z,7.88
2023-04-18T04:51:54.911Z,7.65
2023-04-18T04:54:22.596Z,7.93
2023-04-18T04:56:50.334Z,8.52
2023-04-18T04:59:18.172Z,6.57
2023-04-18T05:01:47.928Z,9.13
2023-04-18T05:04:17.094Z,7.68
2023-04-18T05:06:45.008Z,9.15
2023-04-18T05:09:12.514Z,8.32
2023-04-18T05:11:40.088Z,6.68
2023-04-18T05:14:07.823Z,8.00
2023-04-18T05:16:35.811Z,7.22
2023-04-18T05:19:04.653Z,9.45
2023-04-18T05:21:32.741Z,8.38
2023-04-18T05:24:00.366Z,8.48
2023-04-18T05:26:27.910Z,6.57
2023-04-18T05:28:55.935Z,10.38
2023-04-18T05:31:23.939Z,8.02
2023-04-18T05:33:51.620Z,8.82
2023-04-18T05:36:19.493Z,9.23
2023-04-18T05:38:47.251Z,7.78
2023-04-18T05:41:14.977Z,7.38
2023-04-18T05:43:44.497Z,8.65
2023-04-18T05:46:17.487Z,8.00
2023-04-18T05:48:45.130Z,8.38
2023-04-18T05:51:12.847Z,7.80
2023-04-18T05:53:40.608Z,7.70
2023-04-18T05:56:08.385Z,11.05
2023-04-18T05:58:35.987Z,10.38
2023-04-18T06:01:03.658Z,8.27
2023-04-18T06:03:31.532Z,8.10
2023-04-18T06:05:59.800Z,9.63
2023-04-18T06:08:27.504Z,9.23
2023-04-18T06:10:55.223Z,6.68
2023-04-18T06:13:22.801Z,9.23
2023-04-18T06:15:50.578Z,8.68
2023-04-18T06:18:18.293Z,8.38
2023-04-18T06:20:45.975Z,8.15
2023-04-18T06:23:13.515Z,9.80
2023-04-18T06:25:43.950Z,9.25
2023-04-18T06:28:12.674Z,7.43
2023-04-18T06:30:40.635Z,11.57
2023-04-18T06:33:23.280Z,10.32
2023-04-18T06:39:59.799Z,7.47
2023-04-18T06:42:27.392Z,8.30
2023-04-18T06:44:55.854Z,9.43
2023-04-18T06:47:23.784Z,7.93
2023-04-18T06:49:51.478Z,9.00
2023-04-18T06:52:19.050Z,8.82
2023-04-18T06:54:46.609Z,10.30
2023-04-18T06:57:14.207Z,10.25
2023-04-18T06:59:43.416Z,9.15
2023-04-18T07:05:20.267Z,8.25
2023-04-18T07:07:47.980Z,8.77
2023-04-18T07:10:15.608Z,11.88
2023-04-18T07:12:44.613Z,8.07
2023-04-18T07:15:12.432Z,8.55
2023-04-18T07:17:40.584Z,8.55
2023-04-18T07:20:08.619Z,9.65
2023-04-18T07:22:37.314Z,9.63
2023-04-18T07:25:05.092Z,9.40
2023-04-18T07:27:34.541Z,8.27
2023-04-18T07:30:02.305Z,8.93
2023-04-18T07:32:30.099Z,8.60
2023-04-18T07:34:57.915Z,9.10
2023-04-18T07:37:26.092Z,8.57
2023-04-18T07:39:53.835Z,8.80
2023-04-18T07:42:21.791Z,8.50
2023-04-18T07:44:49.724Z,10.52
2023-04-18T07:47:22.382Z,8.27
2023-04-18T07:49:50.883Z,11.98
2023-04-18T07:52:18.857Z,10.30
2023-04-18T07:54:46.963Z,8.15
2023-04-18T07:57:14.727Z,9.93
2023-04-18T07:59:42.458Z,8.60
2023-04-18T08:02:10.348Z,9.55
2023-04-18T08:04:38.324Z,8.10
2023-04-18T08:07:06.274Z,10.07
2023-04-18T08:09:34.335Z,10.57
2023-04-18T08:12:02.428Z,8.63
2023-04-18T08:14:30.123Z,11.13
2023-04-18T08:16:57.708Z,9.43
2023-04-18T08:19:25.339Z,8.73
2023-04-18T08:21:53.049Z,11.63
2023-04-18T08:27:53.838Z,9.07
2023-04-18T08:30:21.708Z,8.23
2023-04-18T08:35:56.022Z,9.95
2023-04-18T08:38:23.706Z,8.90
2023-04-18T08:40:51.410Z,10.73
2023-04-18T08:43:19.174Z,9.27
2023-04-18T08:45:47.356Z,8.27
2023-04-18T08:48:16.341Z,9.45
2023-04-18T08:50:44.677Z,9.75
2023-04-18T08:53:12.352Z,9.30
2023-04-18T08:55:40.555Z,9.25
2023-04-18T08:58:08.240Z,10.38
2023-04-18T09:00:35.902Z,8.57
2023-04-18T09:03:04.260Z,9.55
2023-04-18T09:05:31.987Z,9.90
2023-04-18T09:07:59.649Z,9.68
2023-04-18T09:10:28.892Z,8.82
2023-04-18T09:12:57.528Z,11.52
2023-04-18T09:15:29.397Z,9.60
2023-04-18T09:17:58.335Z,8.77
2023-04-18T09:20:27.196Z,8.05
2023-04-18T09:23:11.499Z,8.18
2023-04-18T09:25:45.483Z,6.63
2023-04-18T09:28:33.225Z,8.15
2023-04-18T09:31:14.553Z,7.65
2023-04-18T09:33:54.223Z,9.25
2023-04-18T09:36:24.367Z,8.13
2023-04-18T09:38:56.007Z,8.93
2023-04-18T09:41:24.823Z,8.23
2023-04-18T09:44:11.444Z,7.20
2023-04-18T09:46:47.459Z,6.30
2023-04-18T09:49:16.801Z,7.18
2023-04-18T09:51:46.087Z,6.93
2023-04-18T09:54:17.671Z,7.03
2023-04-18T09:56:45.818Z,8.02
2023-04-18T09:59:15.467Z,8.73
2023-04-18T10:01:45.844Z,8.75
2023-04-18T10:04:14.667Z,6.13
2023-04-18T10:06:44.988Z,7.03
2023-04-18T10:09:13.372Z,7.93
2023-04-18T10:11:41.624Z,7.35
2023-04-18T10:14:12.087Z,8.98
2023-04-18T10:16:40.715Z,7.15
2023-04-18T10:19:24.735Z,5.72
2023-04-18T10:21:53.061Z,5.38
2023-04-18T10:24:39.544Z,6.78
2023-04-18T10:27:09.926Z,6.53
2023-04-18T10:29:47.997Z,6.00
2023-04-18T10:32:16.028Z,7.50
2023-04-18T10:34:43.673Z,6.65
2023-04-18T10:37:13.010Z,7.45
2023-04-18T10:39:51.853Z,7.93
2023-04-18T10:42:19.469Z,6.13
2023-04-18T10:45:05.637Z,5.88
2023-04-18T10:47:33.501Z,6.57
2023-04-18T10:50:06.083Z,5.60
2023-04-18T10:52:34.779Z,6.60
2023-04-18T10:55:16.472Z,5.55
2023-04-18T10:57:48.225Z,5.40
2023-04-18T11:00:42.548Z,6.03
2023-04-18T11:03:10.371Z,5.97
2023-04-18T11:05:38.170Z,5.85
2023-04-18T11:08:06.336Z,5.43
2023-04-18T11:10:34.028Z,5.50
2023-04-18T11:13:04.648Z,4.47
2023-04-18T11:15:32.408Z,6.68
2023-04-18T11:18:06.386Z,5.45
2023-04-18T11:20:41.004Z,6.72
2023-04-18T11:23:20.943Z,6.30
2023-04-18T11:25:54.442Z,6.13
2023-04-18T11:28:22.491Z,7.30
2023-04-18T11:30:50.270Z,5.88
2023-04-18T11:33:18.013Z,5.68
2023-04-18T11:35:46.502Z,5.88
2023-04-18T11:38:15.110Z,6.30
2023-04-18T11:40:49.575Z,6.63
2023-04-18T11:43:35.466Z,6.57
2023-04-18T11:46:03.223Z,5.68
2023-04-18T11:48:36.706Z,7.18
2023-04-18T11:51:04.490Z,5.57
2023-04-18T11:53:33.422Z,6.45
2023-04-18T11:56:02.492Z,7.00
2023-04-18T11:58:33.900Z,7.68
2023-04-18T12:01:16.052Z,10.30
2023-04-18T12:03:45.000Z,6.90
2023-04-18T12:06:12.921Z,6.38
2023-04-18T12:08:44.305Z,5.38
2023-04-18T12:11:21.507Z,7.55
2023-04-18T12:13:49.167Z,5.95
2023-04-18T12:16:17.348Z,5.78
2023-04-18T12:18:47.264Z,7.93
2023-04-18T12:21:17.191Z,5.43
2023-04-18T12:23:45.991Z,4.25
2023-04-18T12:26:15.044Z,7.35
2023-04-18T12:28:46.027Z,5.85
2023-04-18T12:33:41.073Z,7.25
2023-04-18T12:36:08.914Z,7.45
2023-04-18T12:38:36.650Z,4.80
2023-04-18T12:41:04.293Z,6.68
2023-04-18T12:43:31.971Z,6.65
2023-04-18T12:45:59.622Z,6.82
2023-04-18T12:48:27.162Z,8.95
2023-04-18T12:50:54.775Z,6.13
2023-04-18T12:53:22.424Z,5.88
2023-04-18T12:55:49.996Z,7.32
2023-04-18T12:58:18.779Z,5.85
2023-04-18T13:00:48.763Z,7.85
2023-04-18T13:03:16.585Z,6.03
2023-04-18T13:05:45.491Z,6.18
2023-04-18T13:08:17.587Z,7.80
2023-04-18T13:10:46.414Z,5.70
2023-04-18T13:13:13.969Z,5.75
2023-04-18T13:15:41.589Z,5.07
2023-04-18T13:18:09.397Z,7.57
2023-04-18T13:20:37.118Z,7.13
2023-04-18T13:23:04.746Z,5.78
2023-04-18T13:25:32.469Z,6.20
2023-04-18T13:28:01.153Z,5.50
2023-04-18T13:30:28.952Z,5.18
2023-04-18T13:32:56.826Z,5.60
2023-04-18T13:35:24.482Z,5.72
2023-04-18T13:37:52.175Z,5.93
2023-04-18T13:40:19.786Z,5.72
2023-04-18T13:42:47.359Z,9.77
2023-04-18T13:45:14.933Z,5.93
2023-04-18T13:47:42.708Z,4.38
2023-04-18T13:50:10.834Z,7.88
2023-04-18T13:52:38.352Z,6.03
2023-04-18T13:55:08.312Z,7.22
2023-04-18T13:57:37.220Z,4.18
2023-04-18T14:00:06.600Z,4.90
2023-04-18T14:02:39.604Z,5.25
2023-04-18T14:05:07.514Z,5.00
2023-04-18T14:07:35.135Z,5.93
2023-04-18T14:10:05.281Z,5.57
2023-04-18T14:12:32.955Z,5.60
2023-04-18T14:15:00.756Z,7.00
2023-04-18T14:17:28.335Z,5.63
2023-04-18T14:19:55.871Z,5.97
2023-04-18T14:22:23.476Z,5.47
2023-04-18T14:24:52.465Z,5.50
2023-04-18T14:27:20.007Z,4.40
2023-04-18T14:29:48.804Z,4.22
2023-04-18T14:32:16.377Z,5.70
2023-04-18T14:34:44.003Z,4.40
2023-04-18T14:37:11.505Z,6.05
2023-04-18T14:39:39.079Z,5.05
2023-04-18T14:42:06.651Z,6.32
2023-04-18T14:44:34.305Z,6.35
2023-04-18T14:47:01.964Z,4.68
2023-04-18T14:49:29.808Z,7.35
2023-04-18T14:51:59.402Z,5.68
2023-04-18T14:54:26.974Z,4.55
2023-04-18T14:56:55.467Z,5.10
2023-04-18T14:59:22.976Z,7.40
2023-04-18T15:01:50.780Z,6.53
2023-04-18T15:04:18.546Z,4.65
2023-04-18T15:06:46.381Z,5.10
2023-04-18T15:09:15.398Z,5.43
2023-04-18T15:11:43.064Z,5.63
2023-04-18T15:14:10.660Z,4.95
2023-04-18T15:16:40.574Z,5.32
2023-04-18T15:19:08.189Z,6.05
2023-04-18T15:21:38.569Z,5.88
2023-04-18T15:24:06.232Z,5.63
2023-04-18T15:26:33.954Z,5.93
2023-04-18T15:29:05.211Z,6.57
2023-04-18T15:31:33.633Z,5.90
2023-04-18T15:34:01.480Z,5.43
2023-04-18T15:36:29.097Z,6.07
2023-04-18T15:38:56.756Z,5.57
2023-04-18T15:41:24.409Z,5.95
2023-04-18T15:43:53.025Z,7.38
2023-04-18T15:46:20.617Z,5.43
2023-04-18T15:48:48.156Z,5.93
2023-04-18T15:51:15.674Z,5.32
2023-04-18T15:53:43.193Z,5.03
2023-04-18T15:56:10.780Z,6.82
2023-04-18T15:58:38.372Z,6.22
2023-04-18T16:01:06.917Z,4.93
2023-04-18T16:03:34.780Z,5.07
2023-04-18T16:06:02.448Z,6.20
2023-04-18T16:08:32.614Z,6.30
2023-04-18T16:11:00.797Z,7.40
2023-04-18T16:13:28.279Z,6.63
2023-04-18T16:15:55.867Z,6.88
2023-04-18T16:18:23.785Z,8.95
2023-04-18T16:20:51.708Z,6.13
2023-04-18T16:23:20.389Z,6.18
2023-04-18T16:25:48.069Z,6.18
2023-04-18T16:28:15.602Z,7.28
2023-04-18T16:30:44.983Z,6.18
2023-04-18T16:33:12.662Z,5.82
2023-04-18T16:35:40.465Z,6.20
2023-04-18T16:38:08.008Z,6.85
2023-04-18T16:40:35.606Z,6.57
2023-04-18T16:43:03.270Z,6.38
2023-04-18T16:45:30.915Z,7.85
2023-04-18T16:47:58.594Z,8.32
2023-04-18T16:50:26.984Z,7.10
2023-04-18T16:52:54.545Z,6.78
2023-04-18T16:55:22.054Z,6.82
2023-04-18T16:57:49.615Z,7.20
2023-04-18T17:00:17.240Z,7.85
2023-04-18T17:02:45.193Z,8.60
2023-04-18T17:05:12.833Z,6.47
2023-04-18T17:07:40.517Z,5.68
2023-04-18T17:10:10.036Z,7.78
2023-04-18T17:12:37.918Z,6.47
2023-04-18T17:15:05.659Z,8.10
2023-04-18T17:17:33.640Z,7.18
2023-04-18T17:20:01.255Z,7.35
2023-04-18T17:22:29.446Z,7.78
2023-04-18T17:24:57.015Z,7.13
2023-04-18T17:27:24.732Z,7.30
2023-04-18T17:29:52.302Z,6.47
2023-04-18T17:32:19.984Z,8.35
2023-04-18T17:34:47.837Z,7.00
2023-04-18T17:37:17.069Z,7.45
2023-04-18T17:39:44.716Z,7.15
2023-04-18T17:42:12.375Z,5.60
2023-04-18T17:44:40.093Z,9.93
2023-04-18T17:47:08.131Z,6.97
2023-04-18T17:49:36.043Z,8.40
2023-04-18T17:52:04.280Z,7.43
2023-04-18T17:54:32.817Z,6.93
2023-04-18T17:57:01.889Z,6.63
2023-04-18T17:59:29.726Z,6.47
2023-04-18T18:01:58.475Z,7.15
2023-04-18T18:04:27.028Z,7.68
2023-04-18T18:06:55.614Z,5.72
2023-04-18T18:09:23.131Z,6.07
2023-04-18T18:11:50.732Z,7.90
2023-04-18T18:14:18.265Z,8.10
2023-04-18T18:16:45.884Z,8.52
2023-04-18T18:19:14.889Z,6.93
2023-04-18T18:21:42.827Z,10.05
2023-04-18T18:24:10.741Z,6.60
2023-04-18T18:26:38.260Z,7.00
2023-04-18T18:29:09.290Z,7.18
2023-04-18T18:31:36.805Z,7.53
2023-04-18T18:34:04.647Z,7.05
2023-04-18T18:36:32.113Z,8.77
2023-04-18T18:38:59.672Z,6.90
2023-04-18T18:41:27.303Z,8.02
2023-04-18T18:43:54.806Z,7.78
2023-04-18T18:46:22.342Z,7.07
2023-04-18T18:48:50.028Z,6.07
2023-04-18T18:51:19.032Z,8.68
2023-04-18T18:53:47.167Z,8.15
2023-04-18T18:56:14.613Z,8.38
2023-04-18T18:58:43.680Z,6.85
2023-04-18T19:01:11.432Z,9.60
2023-04-18T19:03:39.242Z,8.90
2023-04-18T19:06:08.316Z,7.82
2023-04-18T19:08:35.918Z,7.70
2023-04-18T19:11:04.247Z,7.63
2023-04-18T19:13:31.843Z,8.43
2023-04-18T19:15:59.385Z,6.93
2023-04-18T19:18:27.219Z,7.32
2023-04-18T19:20:54.721Z,10.20
2023-04-18T19:23:23.758Z,8.65
2023-04-18T19:25:51.681Z,8.73
2023-04-18T19:28:19.206Z,10.05
2023-04-18T19:30:46.804Z,8.60
2023-04-18T19:33:14.270Z,8.00
2023-04-18T19:35:42.953Z,7.88
2023-04-18T19:38:10.420Z,7.70
2023-04-18T19:40:38.072Z,9.40
2023-04-18T19:43:05.613Z,9.02
2023-04-18T19:45:33.188Z,8.00
2023-04-18T19:48:00.777Z,7.20
2023-04-18T19:50:28.386Z,7.13
2023-04-18T19:52:55.945Z,9.48
2023-04-18T19:55:23.493Z,9.55
2023-04-18T19:57:54.456Z,9.60
2023-04-18T20:02:49.610Z,6.72
2023-04-18T20:05:18.558Z,8.77
2023-04-18T20:07:47.206Z,9.52
2023-04-18T20:10:14.688Z,8.32
2023-04-18T20:12:42.147Z,8.93
2023-04-18T20:15:09.821Z,8.05
2023-04-18T20:17:37.342Z,8.45
2023-04-18T20:20:07.930Z,7.82
2023-04-18T20:22:35.930Z,7.43
2023-04-18T20:25:03.591Z,8.85
2023-04-18T20:27:31.174Z,7.47
2023-04-18T20:29:58.670Z,8.13
2023-04-18T20:32:26.633Z,8.35
2023-04-18T20:34:54.538Z,9.85
2023-04-18T20:37:22.297Z,10.25
2023-04-18T20:39:49.816Z,7.97
2023-04-18T20:42:17.349Z,9.50
2023-04-18T20:44:46.972Z,10.63
2023-04-18T20:47:15.808Z,9.18
2023-04-18T20:49:43.582Z,10.60
2023-04-18T20:52:11.055Z,10.00
2023-04-18T20:54:38.627Z,8.73
2023-04-18T20:57:06.845Z,9.82
2023-04-18T20:59:34.369Z,9.43
2023-04-18T21:02:02.076Z,9.38
2023-04-18T21:04:29.998Z,8.30
2023-04-18T21:06:59.697Z,13.38
2023-04-18T21:09:29.329Z,10.00
2023-04-18T21:11:58.432Z,11.43
2023-04-18T21:14:25.906Z,11.73
2023-04-18T21:16:53.568Z,8.38
2023-04-18T21:19:21.032Z,9.52
2023-04-18T21:21:48.555Z,11.82
2023-04-18T21:24:16.378Z,7.13
2023-04-18T21:26:44.113Z,7.25
2023-04-18T21:29:11.812Z,10.15
2023-04-18T21:31:39.451Z,9.30
2023-04-18T21:34:11.656Z,10.30
2023-04-18T21:36:40.248Z,9.88
2023-04-18T21:39:08.247Z,8.02
2023-04-18T21:41:35.780Z,8.50
2023-04-18T21:44:03.315Z,9.48
2023-04-18T21:46:30.924Z,8.60
2023-04-18T21:48:58.422Z,9.55
2023-04-18T21:51:27.602Z,8.25
2023-04-18T21:53:55.195Z,8.48
2023-04-18T21:56:23.786Z,7.72
2023-04-18T21:58:51.293Z,8.43
2023-04-18T22:01:19.007Z,10.35
2023-04-18T22:03:46.905Z,7.65
2023-04-18T22:06:14.515Z,6.55
2023-04-18T22:08:43.107Z,7.90
2023-04-18T22:11:11.577Z,7.65
2023-04-18T22:13:39.206Z,7.20
2023-04-18T22:16:08.237Z,8.50
2023-04-18T22:18:37.591Z,10.45
2023-04-18T22:21:06.145Z,8.32
2023-04-18T22:23:33.679Z,6.20
2023-04-18T22:26:01.163Z,6.65
2023-04-18T22:28:28.785Z,7.43
2023-04-18T22:30:56.555Z,5.60
2023-04-18T22:33:24.181Z,8.52
2023-04-18T22:35:51.950Z,5.72
2023-04-18T22:38:19.518Z,5.28
2023-04-18T22:40:47.043Z,5.05
2023-04-18T22:43:14.586Z,5.05
2023-04-18T22:45:42.197Z,7.82
2023-04-18T22:48:12.103Z,5.53
2023-04-18T22:50:42.862Z,6.22
2023-04-18T22:53:11.232Z,5.53
2023-04-18T22:55:40.334Z,7.30
2023-04-18T22:58:08.219Z,7.03
2023-04-18T23:00:35.881Z,5.78
2023-04-18T23:03:03.769Z,7.20
2023-04-18T23:05:31.426Z,7.18
2023-04-18T23:08:00.336Z,5.05
2023-04-18T23:10:29.341Z,4.67
2023-04-18T23:12:56.980Z,6.15
2023-04-18T23:15:25.181Z,7.05
2023-04-18T23:17:53.220Z,4.22
2023-04-18T23:20:21.147Z,6.93
2023-04-18T23:22:51.736Z,6.10
2023-04-18T23:25:20.081Z,5.07
2023-04-18T23:27:48.010Z,6.22
2023-04-18T23:30:15.871Z,5.80
2023-04-18T23:32:43.560Z,5.97
2023-04-18T23:35:12.028Z,5.15
2023-04-18T23:37:39.595Z,5.95
2023-04-18T23:40:07.879Z,4.53
2023-04-18T23:42:36.276Z,5.30
2023-04-18T23:45:05.536Z,5.53
2023-04-18T23:47:33.529Z,5.22
2023-04-18T23:50:01.439Z,7.30
2023-04-18T23:52:29.109Z,5.45
2023-04-18T23:54:59.886Z,5.93
2023-04-18T23:57:27.740Z,5.38
2023-04-18T23:59:55.369Z,5.45
